createdAt,value
2023-07-30T01:52:21.930Z,19.54
2023-07-30T01:54:50.831Z,19.52
2023-07-30T01:57:19.669Z,19.50
2023-07-30T01:59:51.085Z,19.49
2023-07-30T02:02:17.552Z,19.47
2023-07-30T02:04:44.422Z,19.45
2023-07-30T02:07:11.143Z,19.39
2023-07-30T02:09:39.953Z,19.34
2023-07-30T02:12:08.819Z,19.28
2023-07-30T02:14:37.629Z,19.25
2023-07-30T02:17:07.397Z,19.21
2023-07-30T02:19:33.818Z,19.14
2023-07-30T02:22:00.336Z,19.07
2023-07-30T02:24:27.875Z,19.02
2023-07-30T02:26:54.416Z,19.00
2023-07-30T02:29:21.044Z,18.98
2023-07-30T02:31:47.504Z,18.94
2023-07-30T02:34:17.609Z,18.91
2023-07-30T02:36:44.363Z,18.89
2023-07-30T02:39:10.981Z,18.84
2023-07-30T02:41:38.106Z,18.80
2023-07-30T02:44:04.869Z,18.76
2023-07-30T02:46:34.146Z,18.73
2023-07-30T02:49:00.603Z,18.71
2023-07-30T02:51:27.013Z,18.69
2023-07-30T02:53:59.359Z,18.68
2023-07-30T02:56:28.110Z,18.65
2023-07-30T02:58:54.646Z,18.62
2023-07-30T03:01:24.931Z,18.62
2023-07-30T03:03:54.035Z,18.64
2023-07-30T03:06:23.374Z,18.65
2023-07-30T03:08:50.001Z,18.66
2023-07-30T03:11:19.009Z,18.66
2023-07-30T03:13:45.903Z,18.68
2023-07-30T03:16:14.962Z,18.69
2023-07-30T03:18:46.087Z,18.70
2023-07-30T03:21:14.954Z,18.71
2023-07-30T03:23:43.762Z,18.71
2023-07-30T03:26:13.443Z,18.72
2023-07-30T03:28:41.197Z,18.70
2023-07-30T03:31:10.628Z,18.71
2023-07-30T03:33:44.045Z,18.70
2023-07-30T03:36:13.870Z,18.69
2023-07-30T03:38:41.296Z,18.70
2023-07-30T03:41:07.922Z,18.70
2023-07-30T03:43:37.361Z,18.73
2023-07-30T03:46:03.900Z,18.76
2023-07-30T03:48:33.762Z,18.79
2023-07-30T03:51:00.423Z,18.82
2023-07-30T03:53:29.408Z,18.85
2023-07-30T03:56:00.786Z,18.87
2023-07-30T03:58:27.648Z,18.88
2023-07-30T04:00:56.551Z,18.90
2023-07-30T04:03:25.882Z,18.92
2023-07-30T04:05:52.570Z,18.94
2023-07-30T04:08:21.829Z,18.94
2023-07-30T04:10:48.433Z,18.93
2023-07-30T04:13:17.435Z,18.92
2023-07-30T04:15:43.879Z,18.92
2023-07-30T04:18:12.992Z,18.89
2023-07-30T04:20:39.678Z,18.87
2023-07-30T04:23:08.828Z,18.86
2023-07-30T04:25:35.280Z,18.84
2023-07-30T04:28:02.563Z,18.82
2023-07-30T04:30:29.109Z,18.79
2023-07-30T04:32:56.215Z,18.77
2023-07-30T04:35:22.786Z,18.77
2023-07-30T04:37:49.317Z,18.78
2023-07-30T04:40:16.317Z,18.75
2023-07-30T04:42:42.788Z,18.72
2023-07-30T04:45:10.399Z,18.71
2023-07-30T04:47:40.064Z,18.70
2023-07-30T04:50:06.973Z,18.69
2023-07-30T04:52:33.923Z,18.69
2023-07-30T04:55:04.043Z,18.70
2023-07-30T04:57:33.051Z,18.72
2023-07-30T04:59:59.770Z,18.72
2023-07-30T05:02:26.307Z,18.73
2023-07-30T05:04:55.264Z,18.71
2023-07-30T05:07:21.691Z,18.68
2023-07-30T05:09:48.326Z,18.65
2023-07-30T05:12:14.883Z,18.62
2023-07-30T05:14:41.585Z,18.61
2023-07-30T05:17:08.033Z,18.57
2023-07-30T05:19:34.838Z,18.51
2023-07-30T05:22:06.330Z,18.47
2023-07-30T05:24:33.014Z,18.44
2023-07-30T05:27:00.088Z,18.47
2023-07-30T05:29:29.061Z,18.45
2023-07-30T05:31:55.882Z,18.43
2023-07-30T05:34:22.582Z,18.44
2023-07-30T05:36:51.595Z,18.44
2023-07-30T05:39:20.665Z,18.45
2023-07-30T05:41:49.532Z,18.47
2023-07-30T05:44:16.027Z,18.51
2023-07-30T05:46:42.797Z,18.54
2023-07-30T05:49:09.513Z,18.57
2023-07-30T05:51:36.159Z,18.59
2023-07-30T05:54:07.756Z,18.60
2023-07-30T05:56:36.925Z,18.61
2023-07-30T05:59:03.363Z,18.64
2023-07-30T06:01:30.094Z,18.68
2023-07-30T06:03:56.979Z,18.70
2023-07-30T06:06:28.794Z,18.83
2023-07-30T06:08:58.075Z,18.98
2023-07-30T06:11:25.425Z,19.15
2023-07-30T06:13:54.681Z,19.35
2023-07-30T06:16:21.261Z,19.49
2023-07-30T06:18:48.134Z,19.63
2023-07-30T06:21:14.625Z,19.80
2023-07-30T06:23:41.228Z,19.93
2023-07-30T06:26:07.661Z,20.02
2023-07-30T06:28:34.147Z,20.05
2023-07-30T06:31:02.716Z,20.09
2023-07-30T06:33:31.978Z,20.14
2023-07-30T06:35:59.734Z,20.18
2023-07-30T06:38:26.266Z,20.22
2023-07-30T06:40:53.008Z,20.26
2023-07-30T06:43:19.575Z,20.34
2023-07-30T06:45:48.615Z,20.44
2023-07-30T06:48:16.166Z,20.50
2023-07-30T06:50:42.694Z,20.51
2023-07-30T06:53:09.484Z,20.52
2023-07-30T06:55:35.920Z,20.54
2023-07-30T06:58:02.640Z,20.53
2023-07-30T07:00:29.086Z,20.55
2023-07-30T07:02:55.702Z,20.62
2023-07-30T07:05:22.529Z,20.74
2023-07-30T07:07:48.931Z,20.85
2023-07-30T07:10:19.309Z,20.87
2023-07-30T07:12:46.031Z,20.86
2023-07-30T07:15:12.619Z,20.82
2023-07-30T07:17:41.336Z,20.81
2023-07-30T07:20:08.202Z,20.78
2023-07-30T07:22:34.906Z,20.77
2023-07-30T07:25:01.675Z,20.74
2023-07-30T07:27:31.171Z,20.70
2023-07-30T07:29:57.746Z,20.63
2023-07-30T07:32:24.445Z,20.60
2023-07-30T07:34:51.181Z,20.62
2023-07-30T07:37:19.102Z,20.65
2023-07-30T07:39:46.728Z,20.67
2023-07-30T07:42:13.616Z,20.71
2023-07-30T07:44:44.348Z,20.68
2023-07-30T07:47:11.955Z,20.67
2023-07-30T07:49:40.393Z,20.65
2023-07-30T07:52:07.603Z,20.68
2023-07-30T07:54:35.129Z,20.82
2023-07-30T07:57:02.005Z,21.03
2023-07-30T07:59:28.874Z,21.09
2023-07-30T08:01:55.449Z,21.19
2023-07-30T08:04:24.591Z,21.34
2023-07-30T08:06:51.061Z,21.49
2023-07-30T08:09:20.000Z,21.60
2023-07-30T08:11:49.178Z,21.60
2023-07-30T08:14:15.578Z,21.59
2023-07-30T08:16:44.926Z,21.65
2023-07-30T08:19:11.422Z,21.65
2023-07-30T08:21:38.472Z,21.64
2023-07-30T08:24:05.249Z,21.70
2023-07-30T08:26:32.493Z,21.84
2023-07-30T08:28:59.086Z,21.98
2023-07-30T08:31:29.861Z,22.04
2023-07-30T08:33:56.651Z,22.00
2023-07-30T08:36:29.419Z,22.06
2023-07-30T08:38:58.794Z,22.16
2023-07-30T08:41:25.358Z,22.28
2023-07-30T08:43:53.515Z,22.43
2023-07-30T08:46:22.929Z,22.52
2023-07-30T08:48:51.091Z,22.68
2023-07-30T08:51:18.712Z,22.79
2023-07-30T08:53:45.641Z,22.86
2023-07-30T08:56:12.528Z,22.97
2023-07-30T08:58:42.912Z,23.03
2023-07-30T09:01:11.330Z,23.10
2023-07-30T09:03:40.066Z,23.10
2023-07-30T09:06:09.371Z,23.11
2023-07-30T09:08:38.588Z,23.04
2023-07-30T09:11:12.067Z,22.97
2023-07-30T09:13:40.149Z,22.99
2023-07-30T09:16:13.954Z,23.09
2023-07-30T09:18:45.063Z,23.23
2023-07-30T09:21:15.385Z,23.34
2023-07-30T09:23:46.661Z,23.32
2023-07-30T09:26:15.624Z,23.29
2023-07-30T09:28:44.778Z,23.30
2023-07-30T09:31:22.237Z,23.29
2023-07-30T09:33:52.515Z,23.32
2023-07-30T09:36:20.144Z,23.38
2023-07-30T09:38:49.999Z,23.39
2023-07-30T09:41:16.907Z,23.43
2023-07-30T09:43:43.347Z,23.47
2023-07-30T09:46:10.094Z,23.53
2023-07-30T09:48:36.648Z,23.56
2023-07-30T09:51:04.375Z,23.59
2023-07-30T09:53:35.342Z,23.68
2023-07-30T09:56:08.943Z,23.71
2023-07-30T09:58:38.212Z,23.76
2023-07-30T10:01:05.740Z,23.83
2023-07-30T10:03:35.469Z,23.92
2023-07-30T10:06:08.236Z,23.95
2023-07-30T10:08:40.524Z,23.98
2023-07-30T10:11:10.193Z,24.02
2023-07-30T10:13:39.483Z,24.07
2023-07-30T10:16:12.508Z,24.14
2023-07-30T10:18:43.708Z,24.18
2023-07-30T10:21:25.106Z,24.08
2023-07-30T10:24:09.897Z,24.01
2023-07-30T10:26:39.045Z,24.01
2023-07-30T10:29:17.983Z,24.00
2023-07-30T10:31:52.579Z,23.96
2023-07-30T10:34:19.276Z,23.98
2023-07-30T10:36:55.274Z,24.04
2023-07-30T10:39:26.953Z,24.12
2023-07-30T10:41:59.694Z,24.20
2023-07-30T10:44:33.089Z,24.30
2023-07-30T10:47:04.088Z,24.38
2023-07-30T10:49:37.818Z,24.39
2023-07-30T10:52:09.577Z,24.39
2023-07-30T10:54:39.862Z,24.43
2023-07-30T10:57:22.368Z,24.45
2023-07-30T10:59:49.174Z,24.51
2023-07-30T11:02:18.224Z,24.58
2023-07-30T11:04:47.001Z,24.64
2023-07-30T11:07:17.828Z,24.67
2023-07-30T11:09:59.828Z,24.64
2023-07-30T11:12:26.644Z,24.62
2023-07-30T11:15:03.800Z,24.59
2023-07-30T11:17:34.880Z,24.60
2023-07-30T11:20:01.389Z,24.63
2023-07-30T11:22:32.800Z,24.65
2023-07-30T11:25:09.333Z,24.60
2023-07-30T11:27:49.336Z,24.60
2023-07-30T11:30:16.010Z,24.62
2023-07-30T11:32:45.093Z,24.64
2023-07-30T11:35:17.157Z,24.70
2023-07-30T11:37:45.864Z,24.72
2023-07-30T11:40:13.210Z,24.74
2023-07-30T11:42:42.990Z,24.77
2023-07-30T11:45:20.680Z,24.76
2023-07-30T11:47:48.184Z,24.73
2023-07-30T11:50:17.231Z,24.69
2023-07-30T11:52:54.520Z,24.65
2023-07-30T11:55:21.610Z,24.67
2023-07-30T11:57:48.313Z,24.71
2023-07-30T12:00:15.051Z,24.77
2023-07-30T12:02:42.160Z,24.85
2023-07-30T12:05:12.903Z,24.92
2023-07-30T12:07:42.206Z,24.93
2023-07-30T12:10:12.011Z,24.88
2023-07-30T12:12:47.779Z,24.84
2023-07-30T12:15:14.526Z,24.78
2023-07-30T12:17:41.316Z,24.75
2023-07-30T12:20:12.136Z,24.66
2023-07-30T12:22:38.986Z,24.58
2023-07-30T12:25:06.359Z,24.54
2023-07-30T12:27:33.119Z,24.51
2023-07-30T12:29:59.612Z,24.50
2023-07-30T12:32:28.575Z,24.53
2023-07-30T12:34:55.327Z,24.57
2023-07-30T12:37:24.289Z,24.62
2023-07-30T12:39:50.770Z,24.65
2023-07-30T12:42:17.328Z,24.67
2023-07-30T12:44:43.782Z,24.69
2023-07-30T12:47:12.382Z,24.69
2023-07-30T12:49:39.214Z,24.71
2023-07-30T12:52:06.421Z,24.73
2023-07-30T12:54:35.821Z,24.76
2023-07-30T12:57:04.977Z,24.77
2023-07-30T12:59:31.809Z,24.77
2023-07-30T13:01:59.147Z,24.76
2023-07-30T13:04:28.823Z,24.77
2023-07-30T13:06:55.585Z,24.77
2023-07-30T13:09:22.211Z,24.79
2023-07-30T13:52:21.459Z,24.87
2023-07-30T13:54:47.977Z,24.86
2023-07-30T13:57:25.063Z,24.84
2023-07-30T13:59:53.093Z,24.88
2023-07-30T14:02:22.286Z,24.90
2023-07-30T14:04:51.394Z,24.91
2023-07-30T14:07:22.528Z,24.90
2023-07-30T14:09:51.448Z,24.88
2023-07-30T14:12:17.896Z,24.84
2023-07-30T14:14:44.661Z,24.83
2023-07-30T14:17:11.345Z,24.83
2023-07-30T14:19:37.852Z,24.83
2023-07-30T14:22:04.540Z,24.86
2023-07-30T14:24:31.055Z,24.88
2023-07-30T14:26:57.757Z,24.88
2023-07-30T14:29:24.354Z,24.89
2023-07-30T14:31:53.528Z,24.90
2023-07-30T14:34:20.023Z,24.89
2023-07-30T14:36:46.464Z,24.87
2023-07-30T14:39:13.095Z,24.85
2023-07-30T14:41:39.859Z,24.85
2023-07-30T14:44:06.656Z,24.83
2023-07-30T14:46:33.216Z,24.80
2023-07-30T14:48:59.831Z,24.78
2023-07-30T14:51:28.653Z,24.76
2023-07-30T14:53:55.122Z,24.75
2023-07-30T14:56:21.688Z,24.74
2023-07-30T14:58:48.311Z,24.74
2023-07-30T15:01:17.221Z,24.74
2023-07-30T15:03:46.216Z,24.73
2023-07-30T15:06:12.815Z,24.73
2023-07-30T15:08:41.830Z,24.73
2023-07-30T15:11:08.608Z,24.74
2023-07-30T15:13:37.405Z,24.77
2023-07-30T15:16:04.038Z,24.80
2023-07-30T15:18:30.610Z,24.80
2023-07-30T15:20:57.199Z,24.79
2023-07-30T15:23:23.670Z,24.79
2023-07-30T15:25:51.675Z,24.76
2023-07-30T15:28:23.590Z,24.75
2023-07-30T15:30:52.536Z,24.76
2023-07-30T15:33:19.153Z,24.77
2023-07-30T15:35:45.855Z,24.78
2023-07-30T15:38:15.899Z,24.79
2023-07-30T15:40:43.291Z,24.80
2023-07-30T15:43:11.196Z,24.80
2023-07-30T15:45:43.330Z,24.79
2023-07-30T15:48:12.862Z,24.76
2023-07-30T15:50:42.861Z,24.74
2023-07-30T15:53:11.737Z,24.72
2023-07-30T15:55:38.278Z,24.69
2023-07-30T15:58:04.765Z,24.68
2023-07-30T16:00:34.787Z,24.69
2023-07-30T16:03:06.270Z,24.70
2023-07-30T16:05:36.056Z,24.72
2023-07-30T16:08:04.074Z,24.72
2023-07-30T16:10:30.574Z,24.72
2023-07-30T16:12:58.829Z,24.70
2023-07-30T16:15:28.527Z,24.68
2023-07-30T16:17:55.346Z,24.68
2023-07-30T16:20:24.698Z,24.67
2023-07-30T16:22:51.386Z,24.66
2023-07-30T16:25:17.970Z,24.66
2023-07-30T16:27:44.394Z,24.67
2023-07-30T16:30:11.153Z,24.64
2023-07-30T16:32:37.875Z,24.62
2023-07-30T16:35:10.849Z,24.61
2023-07-30T16:37:38.535Z,24.58
2023-07-30T16:40:08.589Z,24.55
2023-07-30T16:42:34.994Z,24.54
2023-07-30T16:45:08.078Z,24.51
2023-07-30T16:47:36.678Z,24.46
2023-07-30T16:50:09.653Z,24.42
2023-07-30T16:52:40.314Z,24.37
2023-07-30T16:55:09.828Z,24.36
2023-07-30T16:57:36.609Z,24.35
2023-07-30T17:00:06.505Z,24.34
2023-07-30T17:02:33.880Z,24.31
2023-07-30T17:05:01.018Z,24.28
2023-07-30T17:07:27.667Z,24.25
2023-07-30T17:09:54.204Z,24.22
2023-07-30T17:12:20.824Z,24.21
2023-07-30T17:14:47.318Z,24.17
2023-07-30T17:17:16.629Z,24.14
2023-07-30T17:19:46.536Z,24.13
2023-07-30T17:22:17.924Z,24.12
2023-07-30T17:24:44.396Z,24.09
2023-07-30T17:27:14.445Z,24.08
2023-07-30T17:29:48.432Z,24.08
2023-07-30T17:32:15.018Z,24.06
2023-07-30T17:34:41.612Z,24.02
2023-07-30T17:37:08.742Z,23.95
2023-07-30T17:39:37.680Z,23.91
2023-07-30T17:42:04.809Z,23.88
2023-07-30T17:44:32.086Z,23.83
2023-07-30T17:47:00.245Z,23.79
2023-07-30T17:49:30.568Z,23.78
2023-07-30T17:51:57.727Z,23.79
2023-07-30T17:54:24.176Z,23.79
2023-07-30T17:56:53.504Z,23.75
2023-07-30T17:59:22.324Z,23.72
2023-07-30T18:01:48.972Z,23.70
2023-07-30T18:04:17.856Z,23.69
2023-07-30T18:06:44.669Z,23.73
2023-07-30T18:09:14.524Z,23.75
2023-07-30T18:11:41.300Z,23.77
2023-07-30T18:14:10.365Z,23.77
2023-07-30T18:16:40.412Z,23.76
2023-07-30T18:19:07.538Z,23.73
2023-07-30T18:21:33.970Z,23.70
2023-07-30T18:24:05.041Z,23.67
2023-07-30T18:26:31.483Z,23.61
2023-07-30T18:29:00.336Z,23.52
2023-07-30T18:31:26.913Z,23.50
2023-07-30T18:33:53.666Z,23.52
2023-07-30T18:36:20.170Z,23.51
2023-07-30T18:38:49.148Z,23.40
2023-07-30T18:41:15.771Z,23.27
2023-07-30T18:43:42.249Z,23.18
2023-07-30T18:46:09.152Z,23.12
2023-07-30T18:48:38.508Z,23.09
2023-07-30T18:51:07.551Z,23.09
2023-07-30T18:53:34.237Z,23.10
2023-07-30T18:56:02.162Z,23.13
2023-07-30T18:58:28.629Z,23.14
2023-07-30T19:01:01.075Z,23.12
2023-07-30T19:03:27.970Z,23.09
2023-07-30T19:05:58.291Z,23.04
2023-07-30T19:08:27.187Z,23.01
2023-07-30T19:10:53.929Z,22.96
2023-07-30T19:13:20.451Z,22.91
2023-07-30T19:15:47.215Z,22.86
2023-07-30T19:18:16.913Z,22.83
2023-07-30T19:20:45.471Z,22.79
2023-07-30T19:23:25.216Z,22.75
2023-07-30T19:25:58.203Z,22.72
2023-07-30T19:28:30.127Z,22.68
2023-07-30T19:30:56.860Z,22.64
2023-07-30T19:33:28.474Z,22.62
2023-07-30T19:35:58.631Z,22.59
2023-07-30T19:38:28.856Z,22.59
2023-07-30T19:40:59.227Z,22.59
2023-07-30T19:43:30.652Z,22.58
2023-07-30T19:46:04.353Z,22.58
2023-07-30T19:48:40.913Z,22.56
2023-07-30T19:51:12.930Z,22.52
2023-07-30T19:53:39.866Z,22.47
2023-07-30T19:56:08.875Z,22.42
2023-07-30T19:58:40.825Z,22.38
2023-07-30T20:01:07.487Z,22.36
2023-07-30T20:03:36.546Z,22.31
2023-07-30T20:06:05.945Z,22.28
2023-07-30T20:08:34.515Z,22.26
2023-07-30T20:11:03.185Z,22.23
2023-07-30T20:13:30.165Z,22.22
2023-07-30T20:15:56.947Z,22.22
2023-07-30T20:18:26.768Z,22.22
2023-07-30T20:20:56.473Z,22.20
2023-07-30T20:23:26.155Z,22.19
2023-07-30T20:25:52.887Z,22.16
2023-07-30T20:28:24.268Z,22.15
2023-07-30T20:30:50.864Z,22.14
2023-07-30T20:33:17.509Z,22.13
2023-07-30T20:35:43.945Z,22.11
2023-07-30T20:38:10.457Z,22.09
2023-07-30T20:40:37.090Z,22.05
2023-07-30T20:43:04.103Z,21.99
2023-07-30T20:45:31.015Z,21.92
2023-07-30T20:47:57.738Z,21.86
2023-07-30T20:50:24.230Z,21.81
2023-07-30T20:52:53.119Z,21.77
2023-07-30T20:55:22.242Z,21.71
2023-07-30T20:57:48.861Z,21.66
2023-07-30T21:00:18.029Z,21.62
2023-07-30T21:02:44.833Z,21.55
2023-07-30T21:05:13.302Z,21.50
2023-07-30T21:07:39.787Z,21.44
2023-07-30T21:10:07.034Z,21.37
2023-07-30T21:12:41.375Z,21.31
2023-07-30T21:15:11.904Z,21.28
2023-07-30T21:17:41.461Z,21.26
2023-07-30T21:20:10.595Z,21.25
2023-07-30T21:22:37.222Z,21.23
2023-07-30T21:25:05.067Z,21.21
2023-07-30T21:27:31.938Z,21.19
2023-07-30T21:30:01.085Z,21.17
2023-07-30T21:32:28.185Z,21.14
2023-07-30T21:34:54.750Z,21.13
2023-07-30T21:37:21.488Z,21.08
2023-07-30T21:39:48.408Z,21.05
2023-07-30T21:42:19.529Z,21.03
2023-07-30T21:44:46.094Z,21.02
2023-07-30T21:47:12.578Z,21.01
2023-07-30T21:49:39.447Z,21.00
2023-07-30T21:52:26.211Z,20.96
2023-07-30T21:54:55.815Z,20.92
2023-07-30T21:57:25.249Z,20.92
2023-07-30T21:59:54.811Z,20.95
2023-07-30T22:02:23.955Z,21.00
2023-07-30T22:04:51.215Z,21.05
2023-07-30T22:07:18.215Z,21.10
2023-07-30T22:09:45.159Z,21.13
2023-07-30T22:12:11.777Z,21.14
2023-07-30T22:14:38.741Z,21.15
2023-07-30T22:17:08.067Z,21.15
2023-07-30T22:19:34.610Z,21.11
2023-07-30T22:22:01.288Z,21.07
2023-07-30T22:24:27.786Z,21.01
2023-07-30T22:26:54.639Z,20.96
2023-07-30T22:29:21.217Z,20.89
2023-07-30T22:31:47.847Z,20.84
2023-07-30T22:34:14.457Z,20.80
2023-07-30T22:36:41.177Z,20.74
2023-07-30T22:39:08.195Z,20.70
2023-07-30T22:41:34.778Z,20.68
2023-07-30T22:44:01.267Z,20.67
2023-07-30T22:46:27.776Z,20.66
2023-07-30T22:48:56.599Z,20.64
2023-07-30T22:51:23.214Z,20.63
2023-07-30T22:53:51.706Z,20.61
2023-07-30T22:56:18.196Z,20.58
2023-07-30T22:58:44.651Z,20.56
2023-07-30T23:01:11.504Z,20.54
2023-07-30T23:03:38.110Z,20.53
2023-07-30T23:06:04.648Z,20.53
2023-07-30T23:08:31.132Z,20.53
2023-07-30T23:11:02.185Z,20.53
2023-07-30T23:13:28.684Z,20.51
2023-07-30T23:15:55.309Z,20.50
2023-07-30T23:18:21.988Z,20.48
2023-07-30T23:20:51.446Z,20.44
2023-07-30T23:23:18.117Z,20.42
2023-07-30T23:25:47.092Z,20.42
2023-07-30T23:28:13.556Z,20.43
2023-07-30T23:30:42.348Z,20.44
2023-07-30T23:33:08.856Z,20.44
2023-07-30T23:35:35.458Z,20.42
2023-07-30T23:38:01.900Z,20.40
2023-07-30T23:40:32.921Z,20.38
2023-07-30T23:42:59.417Z,20.38
2023-07-30T23:45:26.258Z,20.39
2023-07-30T23:47:52.912Z,20.41
2023-07-30T23:50:19.598Z,20.42
2023-07-30T23:52:48.793Z,20.42
2023-07-30T23:55:15.316Z,20.42
2023-07-30T23:57:45.684Z,20.40
